createdAt,value
2019-03-17T00:03:02.592Z,81.25
2019-03-17T00:08:06.917Z,80.98
2019-03-17T00:13:10.459Z,81.09
2019-03-17T00:18:14.052Z,80.80
2019-03-17T00:23:17.558Z,80.81
2019-03-17T00:28:20.869Z,81.21
2019-03-17T00:33:24.086Z,81.12
2019-03-17T00:38:27.545Z,80.90
2019-03-17T00:43:30.755Z,81.09
2019-03-17T00:48:34.360Z,81.11
2019-03-17T00:53:37.570Z,81.00
2019-03-17T00:58:40.868Z,81.15
2019-03-17T01:03:43.945Z,80.57
2019-03-17T01:08:47.171Z,80.93
2019-03-17T01:13:50.497Z,81.21
2019-03-17T01:18:54.518Z,81.30
2019-03-17T01:23:58.040Z,81.48
2019-03-17T01:29:01.605Z,81.30
2019-03-17T01:34:04.452Z,80.99
2019-03-17T01:39:07.976Z,81.41
2019-03-17T01:44:10.938Z,81.37
2019-03-17T01:49:13.883Z,81.68
2019-03-17T01:54:17.032Z,81.71
2019-03-17T01:59:19.933Z,82.46
2019-03-17T02:04:22.385Z,84.24
2019-03-17T02:09:25.604Z,85.33
2019-03-17T02:14:29.140Z,86.51
2019-03-17T02:19:32.707Z,85.91
2019-03-17T02:24:35.533Z,85.22
2019-03-17T02:29:38.738Z,85.93
2019-03-17T02:34:41.629Z,85.79
2019-03-17T02:39:46.756Z,86.60
2019-03-17T02:44:50.277Z,86.71
2019-03-17T02:49:52.425Z,87.27
2019-03-17T02:54:56.434Z,87.24
2019-03-17T02:59:59.968Z,87.60
2019-03-17T03:05:04.021Z,87.11
2019-03-17T03:10:07.113Z,87.36
2019-03-17T03:15:10.204Z,87.71
2019-03-17T03:20:13.520Z,88.21
2019-03-17T03:25:16.696Z,88.91
2019-03-17T03:30:19.990Z,88.88
2019-03-17T03:35:23.647Z,89.19
2019-03-17T03:40:26.546Z,89.12
2019-03-17T03:45:30.061Z,89.41
2019-03-17T03:50:33.385Z,89.69
2019-03-17T03:55:36.245Z,89.65
2019-03-17T04:00:39.801Z,89.95
2019-03-17T04:05:43.389Z,91.20
2019-03-17T04:10:46.588Z,92.98
2019-03-17T04:15:49.851Z,95.23
2019-03-17T04:20:53.458Z,96.60
2019-03-17T04:25:56.610Z,97.33
2019-03-17T04:30:59.882Z,99.59
2019-03-17T04:36:03.382Z,100.00
2019-03-17T04:41:06.266Z,100.00
2019-03-17T04:46:08.878Z,100.00
2019-03-17T04:51:12.042Z,100.00
2019-03-17T04:56:15.257Z,100.00
2019-03-17T05:01:17.833Z,100.00
2019-03-17T05:06:21.063Z,100.00
2019-03-17T05:11:24.337Z,100.00
2019-03-17T05:16:27.599Z,100.00
2019-03-17T05:21:31.148Z,100.00
2019-03-17T05:26:34.865Z,100.00
2019-03-17T05:31:37.398Z,100.00
2019-03-17T05:36:42.349Z,100.00
2019-03-17T05:41:45.556Z,100.00
2019-03-17T05:46:49.028Z,100.00
2019-03-17T05:51:52.364Z,100.00
2019-03-17T05:56:56.064Z,100.00
2019-03-17T06:01:59.301Z,95.05
2019-03-17T06:07:02.201Z,93.80
2019-03-17T06:12:05.058Z,94.61
2019-03-17T06:17:08.309Z,95.08
2019-03-17T06:22:11.543Z,94.91
2019-03-17T06:27:14.428Z,93.48
2019-03-17T06:32:17.645Z,93.88
2019-03-17T06:37:30.524Z,94.66
2019-03-17T06:42:25.705Z,94.81
2019-03-17T06:47:28.914Z,95.07
2019-03-17T06:52:32.423Z,93.22
2019-03-17T06:57:35.729Z,93.98
2019-03-17T07:02:38.749Z,92.43
2019-03-17T07:07:44.291Z,92.63
2019-03-17T07:12:47.813Z,91.38
2019-03-17T07:17:50.691Z,92.34
2019-03-17T07:22:54.230Z,92.93
2019-03-17T07:27:57.455Z,93.22
2019-03-17T07:33:00.777Z,93.35
2019-03-17T07:38:03.659Z,93.44
2019-03-17T07:43:06.273Z,94.13
2019-03-17T07:48:09.779Z,94.52
2019-03-17T07:53:11.948Z,94.71
2019-03-17T07:58:15.161Z,94.54
2019-03-17T08:03:18.323Z,94.50
2019-03-17T08:08:22.853Z,94.60
2019-03-17T08:13:25.794Z,94.14
2019-03-17T08:18:28.894Z,92.84
2019-03-17T08:23:32.214Z,93.78
2019-03-17T08:28:35.221Z,92.92
2019-03-17T08:33:38.534Z,91.39
2019-03-17T08:38:41.679Z,92.13
2019-03-17T08:43:53.836Z,93.17
2019-03-17T08:48:49.741Z,93.52
2019-03-17T08:53:54.990Z,91.67
2019-03-17T08:58:58.200Z,87.31
2019-03-17T09:04:01.512Z,84.54
2019-03-17T09:09:07.618Z,82.67
2019-03-17T09:14:11.106Z,81.37
2019-03-17T09:19:14.752Z,81.14
2019-03-17T09:24:20.727Z,82.15
2019-03-17T09:29:23.260Z,81.46
2019-03-17T09:34:26.669Z,80.00
2019-03-17T09:39:30.229Z,79.47
2019-03-17T09:44:33.481Z,78.87
2019-03-17T09:49:36.969Z,75.11
2019-03-17T09:54:39.977Z,74.03
2019-03-17T09:59:44.632Z,71.57
2019-03-17T10:04:48.143Z,71.90
2019-03-17T10:09:51.679Z,71.93
2019-03-17T10:14:54.604Z,70.53
2019-03-17T10:19:58.265Z,69.12
2019-03-17T10:25:01.488Z,69.65
2019-03-17T10:30:05.247Z,66.48
2019-03-17T10:35:08.622Z,63.02
2019-03-17T10:40:13.119Z,62.92
2019-03-17T10:45:16.314Z,62.58
2019-03-17T10:50:19.515Z,61.08
2019-03-17T10:55:21.964Z,60.20
2019-03-17T11:00:25.498Z,59.42
2019-03-17T11:05:29.083Z,59.88
2019-03-17T11:10:31.674Z,60.72
2019-03-17T11:15:34.849Z,64.69
2019-03-17T11:20:37.327Z,66.43
2019-03-17T11:25:40.603Z,67.19
2019-03-17T11:30:45.676Z,66.55
2019-03-17T11:35:49.236Z,67.68
2019-03-17T11:40:52.855Z,67.79
2019-03-17T11:45:56.538Z,63.51
2019-03-17T11:50:59.985Z,63.56
2019-03-17T11:56:03.110Z,62.44
2019-03-17T12:01:06.913Z,63.62
2019-03-17T12:06:10.207Z,63.27
2019-03-17T12:11:13.637Z,65.18
2019-03-17T12:16:16.891Z,70.56
2019-03-17T12:21:20.225Z,73.82
2019-03-17T12:26:23.443Z,73.37
2019-03-17T12:31:26.762Z,75.07
2019-03-17T12:36:30.253Z,76.48
2019-03-17T12:41:33.802Z,73.31
2019-03-17T12:46:36.857Z,71.13
2019-03-17T12:51:39.530Z,65.00
2019-03-17T12:56:42.802Z,64.02
2019-03-17T13:01:46.155Z,64.77
2019-03-17T13:06:49.936Z,63.78
2019-03-17T13:11:53.593Z,65.17
2019-03-17T13:16:56.971Z,74.70
2019-03-17T13:22:00.636Z,68.49
2019-03-17T13:27:04.322Z,66.43
2019-03-17T13:32:07.683Z,63.31
2019-03-17T13:37:10.984Z,59.33
2019-03-17T13:42:14.288Z,59.08
2019-03-17T13:47:17.894Z,54.16
2019-03-17T13:52:21.172Z,58.04
2019-03-17T13:57:24.495Z,61.12
2019-03-17T14:02:27.816Z,61.10
2019-03-17T14:07:31.169Z,62.36
2019-03-17T14:12:34.212Z,66.01
2019-03-17T14:17:37.516Z,61.50
2019-03-17T14:22:40.894Z,57.46
2019-03-17T14:27:44.513Z,59.20
2019-03-17T14:32:48.128Z,58.70
2019-03-17T14:37:51.306Z,58.86
2019-03-17T14:42:55.657Z,58.37
2019-03-17T14:47:59.256Z,61.79
2019-03-17T14:53:02.854Z,61.36
2019-03-17T14:58:06.296Z,56.68
2019-03-17T15:03:09.494Z,54.90
2019-03-17T15:08:13.138Z,58.37
2019-03-17T15:13:16.845Z,58.51
2019-03-17T15:18:20.108Z,59.81
2019-03-17T15:23:23.067Z,60.61
2019-03-17T15:28:26.385Z,61.55
2019-03-17T15:33:30.025Z,63.47
2019-03-17T15:38:33.264Z,62.55
2019-03-17T15:43:36.861Z,62.38
2019-03-17T15:48:40.498Z,62.47
2019-03-17T15:53:44.106Z,62.86
2019-03-17T15:58:47.478Z,64.01
2019-03-17T16:03:50.693Z,63.71
2019-03-17T16:08:54.096Z,63.86
2019-03-17T16:13:57.000Z,64.61
2019-03-17T16:19:00.410Z,61.66
2019-03-17T16:24:04.070Z,62.28
2019-03-17T16:29:07.577Z,60.29
2019-03-17T16:34:11.315Z,60.92
2019-03-17T16:39:14.993Z,63.68
2019-03-17T16:44:18.618Z,64.22
2019-03-17T16:49:22.204Z,65.07
2019-03-17T16:54:25.244Z,65.95
2019-03-17T16:59:28.849Z,66.81
2019-03-17T17:04:32.293Z,67.37
2019-03-17T17:09:35.793Z,68.37
2019-03-17T17:14:39.288Z,69.98
2019-03-17T17:19:43.069Z,73.16
2019-03-17T17:24:46.973Z,72.80
2019-03-17T17:29:50.863Z,71.02
2019-03-17T17:34:54.505Z,70.13
2019-03-17T17:39:58.428Z,70.30
2019-03-17T17:45:02.482Z,70.53
2019-03-17T17:50:07.988Z,71.20
2019-03-17T17:55:12.341Z,72.62
2019-03-17T18:00:21.042Z,73.48
2019-03-17T18:05:26.475Z,73.54
2019-03-17T18:10:31.683Z,73.09
2019-03-17T18:15:37.364Z,75.35
2019-03-17T18:20:41.807Z,75.19
2019-03-17T18:25:48.129Z,76.04
2019-03-17T18:30:53.972Z,76.63
2019-03-17T18:35:58.538Z,76.55
2019-03-17T18:41:03.325Z,75.27
2019-03-17T18:46:09.424Z,74.79
2019-03-17T18:51:16.519Z,74.95
2019-03-17T18:56:23.190Z,76.35
2019-03-17T19:01:28.051Z,76.36
2019-03-17T19:06:35.335Z,76.74
2019-03-17T19:11:42.041Z,77.26
2019-03-17T19:16:46.961Z,77.38
2019-03-17T19:21:55.362Z,77.14
2019-03-17T19:27:01.981Z,77.61
2019-03-17T19:32:08.106Z,77.60
2019-03-17T19:37:15.432Z,77.62
2019-03-17T19:42:28.033Z,78.34
2019-03-17T19:47:34.341Z,78.25
2019-03-17T19:52:41.115Z,80.11
2019-03-17T19:57:49.710Z,80.22
2019-03-17T20:02:55.224Z,80.73
2019-03-17T20:08:02.606Z,80.61
2019-03-17T20:13:12.090Z,80.55
2019-03-17T20:18:20.740Z,79.56
2019-03-17T20:23:30.112Z,78.46
2019-03-17T20:28:38.020Z,78.54
2019-03-17T20:33:46.922Z,78.19
2019-03-17T20:38:55.094Z,78.19
2019-03-17T20:44:01.982Z,77.80
2019-03-17T20:49:08.455Z,77.79
2019-03-17T20:54:13.012Z,77.90
2019-03-17T20:59:19.555Z,78.00
2019-03-17T21:04:25.783Z,78.96
2019-03-17T21:09:31.737Z,78.95
2019-03-17T21:14:38.257Z,78.85
2019-03-17T21:19:42.369Z,79.48
2019-03-17T21:24:48.029Z,80.42
2019-03-17T21:29:52.525Z,80.92
2019-03-17T21:34:56.187Z,81.44
2019-03-17T21:39:59.222Z,82.72
2019-03-17T21:45:02.865Z,83.90
2019-03-17T21:50:07.416Z,85.71
2019-03-17T21:55:11.224Z,86.06
2019-03-17T22:00:14.691Z,86.30
2019-03-17T22:05:18.040Z,88.38
2019-03-17T22:10:21.347Z,89.89
2019-03-17T22:15:26.066Z,90.75
2019-03-17T22:20:29.269Z,90.86
2019-03-17T22:25:32.833Z,91.92
2019-03-17T22:30:35.890Z,93.63
2019-03-17T22:35:39.241Z,94.16
2019-03-17T22:40:42.161Z,94.98
2019-03-17T22:45:45.205Z,94.53
2019-03-17T22:50:48.761Z,95.01
2019-03-17T22:55:52.336Z,95.17
2019-03-17T23:00:55.514Z,95.84
2019-03-17T23:05:58.290Z,96.09
2019-03-17T23:11:02.006Z,95.78
2019-03-17T23:16:05.505Z,95.77
2019-03-17T23:21:09.823Z,96.19
2019-03-17T23:26:12.978Z,96.06
2019-03-17T23:31:15.999Z,95.64
2019-03-17T23:36:18.997Z,95.86
2019-03-17T23:41:21.642Z,94.56
2019-03-17T23:46:24.951Z,94.01
2019-03-17T23:51:28.110Z,94.60
2019-03-17T23:56:31.680Z,94.19
